Time;durP1;ratioP1;P1;durP2;ratioP2;P2;SDS_P1;SDS_P2;PMS_P1;PMS_P2;Temp;Humidity;BMP_temperature;BMP_pressure;BME280_temperature;BME280_humidity;BME280_pressure;Samples;Min_cycle;Max_cycle;Signal;HPM_P1;HPM_P2
2022/04/16 00:01:49;;;;;;;16.27;9.68;;;;;;;;;;5052604;28;20530;-72
2022/04/16 00:04:15;;;;;;;16.80;10.00;;;;;;;;;;5050629;28;20333;-72
2022/04/16 00:06:41;;;;;;;14.10;9.20;;;;;;;;;;5052427;28;20028;-72
2022/04/16 00:09:07;;;;;;;18.02;10.07;;;;;;;;;;5052515;28;20494;-72
2022/04/16 00:11:33;;;;;;;15.75;9.38;;;;;;;;;;5052301;28;20431;-72
2022/04/16 00:13:59;;;;;;;18.38;9.65;;;;;;;;;;5045473;28;20087;-72
2022/04/16 00:16:26;;;;;;;17.40;9.65;;;;;;;;;;5032427;28;20444;-72
2022/04/16 00:18:52;;;;;;;15.00;8.98;;;;;;;;;;5032341;28;20097;-72
2022/04/16 00:21:18;;;;;;;16.10;10.27;;;;;;;;;;5049257;28;20104;-72
2022/04/16 00:23:44;;;;;;;14.23;9.40;;;;;;;;;;5052170;28;20450;-72
2022/04/16 00:26:13;;;;;;;16.73;9.85;;;;;;;;;;5051892;28;20032;-72
2022/04/16 00:28:39;;;;;;;18.95;10.88;;;;;;;;;;5052148;28;20032;-72
2022/04/16 00:31:05;;;;;;;17.42;9.90;;;;;;;;;;5051909;28;20048;-72
2022/04/16 00:33:33;;;;;;;19.00;10.60;;;;;;;;;;5052074;28;20032;-72
2022/04/16 00:35:59;;;;;;;17.08;10.75;;;;;;;;;;5051723;28;20017;-72
2022/04/16 00:38:25;;;;;;;17.58;10.45;;;;;;;;;;5051937;28;20025;-72
2022/04/16 00:40:52;;;;;;;17.25;10.23;;;;;;;;;;5051806;28;20032;-72
2022/04/16 00:43:25;;;;;;;19.23;11.13;;;;;;;;;;5051810;28;20044;-72
2022/04/16 00:45:52;;;;;;;18.92;10.32;;;;;;;;;;5051750;28;20036;-72
2022/04/16 00:48:18;;;;;;;20.38;11.43;;;;;;;;;;5051955;28;20025;-72
2022/04/16 00:50:45;;;;;;;18.27;11.23;;;;;;;;;;5051663;28;20025;-72
2022/04/16 00:53:14;;;;;;;17.10;10.90;;;;;;;;;;5051809;28;20053;-72
2022/04/16 00:55:40;;;;;;;19.23;11.13;;;;;;;;;;5051722;28;20049;-72
2022/04/16 00:58:06;;;;;;;18.10;10.90;;;;;;;;;;5051651;28;20056;-72
2022/04/16 01:00:32;;;;;;;17.63;10.23;;;;;;;;;;5051771;28;20075;-71
2022/04/16 01:02:58;;;;;;;19.08;11.18;;;;;;;;;;5050180;28;20032;-72
2022/04/16 01:05:24;;;;;;;22.30;11.35;;;;;;;;;;5051635;28;20113;-72
2022/04/16 01:07:56;;;;;;;19.17;11.52;;;;;;;;;;5051504;28;20487;-72
2022/04/16 01:10:26;;;;;;;19.80;11.93;;;;;;;;;;5051528;28;20025;-72
2022/04/16 01:12:53;;;;;;;21.17;11.98;;;;;;;;;;5051500;28;20382;-72
2022/04/16 01:15:20;;;;;;;23.10;12.25;;;;;;;;;;5051379;28;20056;-72
2022/04/16 01:17:47;;;;;;;20.83;12.68;;;;;;;;;;5055080;28;20055;-72
2022/04/16 01:20:13;;;;;;;23.33;12.63;;;;;;;;;;5055678;28;20514;-72
2022/04/16 01:22:40;;;;;;;22.08;12.07;;;;;;;;;;5055458;28;20104;-72
2022/04/16 01:25:07;;;;;;;18.85;12.05;;;;;;;;;;5055435;28;20524;-71
2022/04/16 01:27:35;;;;;;;22.88;12.75;;;;;;;;;;5055405;28;20048;-72
2022/04/16 01:30:02;;;;;;;24.75;12.80;;;;;;;;;;5055383;28;20496;-72
2022/04/16 01:32:29;;;;;;;24.15;13.63;;;;;;;;;;5055168;28;20421;-72
2022/04/16 01:34:55;;;;;;;22.10;12.98;;;;;;;;;;5055171;28;20025;-72
2022/04/16 01:37:23;;;;;;;22.40;13.10;;;;;;;;;;5055231;28;20025;-72
2022/04/16 01:39:49;;;;;;;25.45;13.25;;;;;;;;;;5055262;28;20017;-72
2022/04/16 01:42:15;;;;;;;25.00;13.10;;;;;;;;;;5054927;28;20063;-72
2022/04/16 01:44:43;;;;;;;23.63;13.48;;;;;;;;;;5055031;28;20033;-72
2022/04/16 01:47:10;;;;;;;29.27;14.65;;;;;;;;;;5055001;28;20025;-72
2022/04/16 01:49:36;;;;;;;24.70;14.90;;;;;;;;;;5054944;28;20044;-71
2022/04/16 01:52:03;;;;;;;31.75;16.33;;;;;;;;;;5054870;28;20071;-71
2022/04/16 01:54:29;;;;;;;30.05;15.73;;;;;;;;;;5054998;28;20037;-72
2022/04/16 01:56:56;;;;;;;27.10;15.50;;;;;;;;;;5054582;28;20048;-71
2022/04/16 01:59:25;;;;;;;28.38;16.52;;;;;;;;;;5054873;28;20016;-72
2022/04/16 02:01:51;;;;;;;27.80;15.18;;;;;;;;;;5054769;28;20025;-71
2022/04/16 02:04:17;;;;;;;29.27;15.27;;;;;;;;;;5054674;28;20033;-71
2022/04/16 02:06:43;;;;;;;37.30;17.65;;;;;;;;;;5054672;28;20017;-71
2022/04/16 02:09:09;;;;;;;30.35;17.27;;;;;;;;;;5054575;28;20032;-71
2022/04/16 02:11:35;;;;;;;31.08;17.05;;;;;;;;;;5054536;28;20024;-71
2022/04/16 02:14:02;;;;;;;29.52;16.45;;;;;;;;;;5054415;28;20013;-72
2022/04/16 02:16:28;;;;;;;27.63;15.73;;;;;;;;;;5054347;28;20035;-72
2022/04/16 02:18:54;;;;;;;30.05;16.65;;;;;;;;;;5053127;28;20425;-71
2022/04/16 02:21:22;;;;;;;32.70;17.63;;;;;;;;;;5054210;28;20080;-72
2022/04/16 02:23:50;;;;;;;32.70;15.98;;;;;;;;;;5054383;28;20104;-71
2022/04/16 02:26:16;;;;;;;27.67;16.70;;;;;;;;;;5054132;28;20284;-71
2022/04/16 02:28:42;;;;;;;26.80;15.52;;;;;;;;;;5053835;28;20463;-71
2022/04/16 02:31:08;;;;;;;30.73;15.93;;;;;;;;;;5054066;28;20162;-71
2022/04/16 02:33:34;;;;;;;28.25;16.27;;;;;;;;;;5054143;28;20059;-71
2022/04/16 02:36:00;;;;;;;30.67;15.32;;;;;;;;;;5053865;28;20036;-72
2022/04/16 02:38:26;;;;;;;29.35;17.40;;;;;;;;;;5053044;28;20029;-73
2022/04/16 02:40:52;;;;;;;29.10;17.23;;;;;;;;;;5054389;28;20025;-71
2022/04/16 02:43:18;;;;;;;29.45;16.63;;;;;;;;;;5054468;28;20028;-71
2022/04/16 02:48:29;;;;;;;29.50;16.58;;;;;;;;;;5054386;28;20514;-71
2022/04/16 02:50:55;;;;;;;32.00;17.27;;;;;;;;;;5052330;28;20080;-71
2022/04/16 02:53:21;;;;;;;29.67;16.17;;;;;;;;;;5053835;28;20056;-72
2022/04/16 02:55:48;;;;;;;31.70;17.10;;;;;;;;;;5053474;28;20107;-71
2022/04/16 02:58:14;;;;;;;31.30;16.50;;;;;;;;;;5053726;28;20412;-73
2022/04/16 03:00:41;;;;;;;30.85;16.30;;;;;;;;;;5053708;28;20029;-71
2022/04/16 03:03:08;;;;;;;30.67;16.45;;;;;;;;;;5053680;28;20023;-71
2022/04/16 03:05:35;;;;;;;34.40;17.00;;;;;;;;;;5053559;28;20025;-71
2022/04/16 03:08:01;;;;;;;30.20;15.75;;;;;;;;;;5053306;28;20048;-71
2022/04/16 03:10:28;;;;;;;31.73;17.45;;;;;;;;;;5052298;28;20382;-73
2022/04/16 03:12:55;;;;;;;31.30;17.95;;;;;;;;;;5053357;28;20028;-73
2022/04/16 03:18:07;;;;;;;28.90;17.15;;;;;;;;;;5053724;28;20881;-73
2022/04/16 03:20:34;;;;;;;32.05;17.02;;;;;;;;;;5053252;28;20013;-73
2022/04/16 03:23:02;;;;;;;31.40;16.45;;;;;;;;;;5053055;28;20433;-73
2022/04/16 03:25:28;;;;;;;32.05;17.35;;;;;;;;;;5053067;28;20108;-73
2022/04/16 03:27:54;;;;;;;31.38;16.50;;;;;;;;;;5053118;28;20422;-73
2022/04/16 03:30:23;;;;;;;29.85;16.55;;;;;;;;;;5053051;28;20017;-73
2022/04/16 03:32:49;;;;;;;33.55;18.15;;;;;;;;;;5053126;28;20025;-73
2022/04/16 03:35:15;;;;;;;35.47;17.58;;;;;;;;;;5052952;28;20040;-73
2022/04/16 03:37:41;;;;;;;35.38;18.08;;;;;;;;;;5052959;28;20383;-73
2022/04/16 03:40:08;;;;;;;33.80;18.15;;;;;;;;;;5052079;28;20017;-72
2022/04/16 03:42:34;;;;;;;35.78;18.15;;;;;;;;;;5052733;28;20029;-72
2022/04/16 03:45:00;;;;;;;34.80;18.80;;;;;;;;;;5052934;28;20033;-72
2022/04/16 03:47:27;;;;;;;35.13;18.77;;;;;;;;;;5052786;28;20098;-73
2022/04/16 03:49:53;;;;;;;33.60;18.48;;;;;;;;;;5052703;28;20031;-72
2022/04/16 03:52:19;;;;;;;33.47;18.40;;;;;;;;;;5052640;28;20103;-72
2022/04/16 04:00:17;;;;;;;34.88;18.52;;;;;;;;;;5052430;28;20052;-73
2022/04/16 04:02:43;;;;;;;40.95;19.95;;;;;;;;;;5052572;28;20029;-73
2022/04/16 04:05:09;;;;;;;36.42;19.88;;;;;;;;;;5052468;28;20033;-73
2022/04/16 04:07:35;;;;;;;36.13;19.05;;;;;;;;;;5052337;28;20021;-73
2022/04/16 04:10:01;;;;;;;38.35;20.55;;;;;;;;;;5052424;28;20653;-73
2022/04/16 04:12:27;;;;;;;36.38;19.63;;;;;;;;;;5052236;28;20106;-72
2022/04/16 04:14:53;;;;;;;36.45;19.48;;;;;;;;;;5052076;28;20053;-73
2022/04/16 04:17:20;;;;;;;36.78;21.00;;;;;;;;;;5052326;28;20024;-73
2022/04/16 04:19:47;;;;;;;44.55;20.42;;;;;;;;;;5052113;28;20017;-73
2022/04/16 04:22:15;;;;;;;37.47;19.75;;;;;;;;;;5052097;28;20025;-72
2022/04/16 04:24:41;;;;;;;38.83;20.30;;;;;;;;;;5052059;28;20032;-72
2022/04/16 04:27:07;;;;;;;44.03;21.85;;;;;;;;;;5051956;28;20027;-72
2022/04/16 04:29:34;;;;;;;41.03;21.05;;;;;;;;;;5052122;28;20360;-72
2022/04/16 04:32:00;;;;;;;40.72;20.75;;;;;;;;;;5051851;28;20458;-72
2022/04/16 04:34:26;;;;;;;45.85;20.20;;;;;;;;;;5051935;28;20124;-72
2022/04/16 04:36:53;;;;;;;40.53;21.25;;;;;;;;;;5051995;28;20017;-73
2022/04/16 04:39:19;;;;;;;43.55;21.83;;;;;;;;;;5051828;28;20029;-72
2022/04/16 04:41:46;;;;;;;40.00;21.27;;;;;;;;;;5051696;28;20028;-72
2022/04/16 04:44:12;;;;;;;37.63;20.50;;;;;;;;;;5051762;28;20021;-73
2022/04/16 04:46:39;;;;;;;47.33;23.40;;;;;;;;;;5051775;28;20032;-72
2022/04/16 04:49:08;;;;;;;51.75;24.42;;;;;;;;;;5051818;28;20415;-72
2022/04/16 04:51:37;;;;;;;49.75;23.95;;;;;;;;;;5051511;28;20025;-73
2022/04/16 04:54:07;;;;;;;42.38;23.15;;;;;;;;;;5051712;28;20048;-72
2022/04/16 04:56:33;;;;;;;50.38;24.50;;;;;;;;;;5051428;28;20075;-72
2022/04/16 04:58:59;;;;;;;43.20;23.88;;;;;;;;;;5051583;28;20075;-72
2022/04/16 05:01:25;;;;;;;51.30;24.67;;;;;;;;;;5051828;28;20021;-72
2022/04/16 05:03:52;;;;;;;46.70;24.60;;;;;;;;;;5051633;28;20554;-72
2022/04/16 05:06:18;;;;;;;43.20;23.17;;;;;;;;;;5051499;28;20111;-72
2022/04/16 05:08:44;;;;;;;45.95;25.30;;;;;;;;;;5051678;28;20143;-72
2022/04/16 05:11:10;;;;;;;47.40;22.77;;;;;;;;;;5051297;28;20024;-73
2022/04/16 05:13:37;;;;;;;46.65;24.58;;;;;;;;;;5051422;28;20017;-73
2022/04/16 05:16:03;;;;;;;50.80;26.40;;;;;;;;;;5051452;28;20063;-73
2022/04/16 05:18:29;;;;;;;52.47;26.17;;;;;;;;;;5051479;28;20035;-73
2022/04/16 05:20:55;;;;;;;50.17;25.35;;;;;;;;;;5051222;28;20021;-73
2022/04/16 05:23:21;;;;;;;50.20;24.52;;;;;;;;;;5051450;28;20075;-73
2022/04/16 05:25:47;;;;;;;53.45;25.60;;;;;;;;;;5051246;28;20041;-72
2022/04/16 05:28:13;;;;;;;46.70;24.98;;;;;;;;;;5051569;28;20071;-73
2022/04/16 05:30:44;;;;;;;52.83;26.13;;;;;;;;;;5051321;28;20505;-72
2022/04/16 05:35:55;;;;;;;46.53;24.73;;;;;;;;;;5051124;28;20214;-72
2022/04/16 05:38:21;;;;;;;50.30;25.65;;;;;;;;;;5051307;28;20063;-72
2022/04/16 05:40:47;;;;;;;48.03;24.10;;;;;;;;;;5051023;28;20059;-72
2022/04/16 05:43:13;;;;;;;45.90;24.83;;;;;;;;;;5051204;28;20056;-72
2022/04/16 05:45:39;;;;;;;42.97;24.00;;;;;;;;;;5051117;28;20420;-72
2022/04/16 05:48:05;;;;;;;45.83;24.10;;;;;;;;;;5051243;28;20079;-72
2022/04/16 05:50:32;;;;;;;48.38;24.98;;;;;;;;;;5051114;28;20538;-73
2022/04/16 05:52:58;;;;;;;49.22;24.30;;;;;;;;;;5051104;28;20025;-72
2022/04/16 05:55:24;;;;;;;44.15;24.23;;;;;;;;;;5050942;28;20127;-73
2022/04/16 05:57:50;;;;;;;45.75;23.73;;;;;;;;;;5050877;28;20061;-72
2022/04/16 06:00:16;;;;;;;42.33;23.52;;;;;;;;;;5051192;28;20053;-72
2022/04/16 06:02:42;;;;;;;44.88;24.30;;;;;;;;;;5052706;28;20021;-72
2022/04/16 06:05:09;;;;;;;47.30;25.25;;;;;;;;;;5054665;28;20056;-73
2022/04/16 06:07:35;;;;;;;51.97;24.67;;;;;;;;;;5054562;28;20032;-72
2022/04/16 06:10:01;;;;;;;46.05;25.25;;;;;;;;;;5054469;28;20099;-72
2022/04/16 06:12:27;;;;;;;49.42;26.83;;;;;;;;;;5054477;28;20456;-72
2022/04/16 06:14:53;;;;;;;55.67;26.95;;;;;;;;;;5054301;28;20024;-72
2022/04/16 06:17:19;;;;;;;51.63;26.42;;;;;;;;;;5054579;28;20364;-73
2022/04/16 06:19:45;;;;;;;45.33;25.05;;;;;;;;;;5054276;28;20099;-72
2022/04/16 06:22:12;;;;;;;55.00;27.33;;;;;;;;;;5054224;28;20471;-72
2022/04/16 06:24:41;;;;;;;51.75;26.15;;;;;;;;;;5054186;28;20033;-73
2022/04/16 06:27:07;;;;;;;51.33;27.38;;;;;;;;;;5054101;28;20132;-72
2022/04/16 06:29:33;;;;;;;47.85;26.58;;;;;;;;;;5054223;28;20021;-72
2022/04/16 06:31:59;;;;;;;51.53;27.02;;;;;;;;;;5053999;28;20047;-72
2022/04/16 06:34:27;;;;;;;51.38;26.20;;;;;;;;;;5053690;28;20104;-73
2022/04/16 06:36:53;;;;;;;48.63;24.67;;;;;;;;;;5053882;28;20116;-73
2022/04/16 06:39:19;;;;;;;47.92;25.98;;;;;;;;;;5053977;28;20025;-73
2022/04/16 06:41:45;;;;;;;51.78;26.02;;;;;;;;;;5053763;28;20020;-73
2022/04/16 06:44:11;;;;;;;41.58;25.23;;;;;;;;;;5053874;28;20017;-73
2022/04/16 06:46:37;;;;;;;44.75;25.08;;;;;;;;;;5053931;28;20024;-72
2022/04/16 06:49:03;;;;;;;40.50;24.92;;;;;;;;;;5053828;28;20103;-73
2022/04/16 06:51:32;;;;;;;40.67;21.88;;;;;;;;;;5053533;28;20056;-73
2022/04/16 06:53:58;;;;;;;38.35;22.60;;;;;;;;;;5053693;28;20056;-72
2022/04/16 06:56:24;;;;;;;35.53;20.75;;;;;;;;;;5053334;28;20148;-73
2022/04/16 06:58:50;;;;;;;37.42;22.42;;;;;;;;;;5053759;28;20036;-73
2022/04/16 07:01:16;;;;;;;37.63;21.10;;;;;;;;;;5053650;28;20032;-72
2022/04/16 07:03:43;;;;;;;36.22;21.15;;;;;;;;;;5053624;28;20083;-73
2022/04/16 07:06:09;;;;;;;34.72;20.60;;;;;;;;;;5053492;28;20029;-73
2022/04/16 07:08:35;;;;;;;34.13;19.95;;;;;;;;;;5053442;28;20025;-72
2022/04/16 07:11:01;;;;;;;32.92;20.05;;;;;;;;;;5053435;28;20033;-75
2022/04/16 07:13:27;;;;;;;32.40;19.20;;;;;;;;;;5051201;28;20040;-75
2022/04/16 07:15:53;;;;;;;30.38;18.83;;;;;;;;;;5033341;28;20030;-75
2022/04/16 07:18:20;;;;;;;27.25;16.88;;;;;;;;;;5033359;28;20091;-76
2022/04/16 07:20:47;;;;;;;27.27;16.90;;;;;;;;;;5044540;28;20028;-75
2022/04/16 07:23:13;;;;;;;25.05;16.40;;;;;;;;;;5053089;28;20027;-75
2022/04/16 07:25:39;;;;;;;27.85;16.38;;;;;;;;;;5053028;28;20059;-75
2022/04/16 07:28:05;;;;;;;27.17;15.65;;;;;;;;;;5053127;28;20021;-75
2022/04/16 07:30:31;;;;;;;23.55;15.05;;;;;;;;;;5052897;28;20033;-75
2022/04/16 07:32:57;;;;;;;27.20;16.10;;;;;;;;;;5053085;28;20105;-76
2022/04/16 07:35:26;;;;;;;25.02;15.18;;;;;;;;;;5052827;28;20410;-75
2022/04/16 07:37:56;;;;;;;22.48;14.20;;;;;;;;;;5052882;28;20021;-75
2022/04/16 07:40:22;;;;;;;22.52;14.40;;;;;;;;;;5052845;28;20022;-75
2022/04/16 07:42:48;;;;;;;24.02;13.50;;;;;;;;;;5052563;28;20511;-76
2022/04/16 07:45:14;;;;;;;22.80;14.00;;;;;;;;;;5052693;28;20064;-75
2022/04/16 07:47:40;;;;;;;20.40;12.88;;;;;;;;;;5052717;28;20471;-75
2022/04/16 07:50:07;;;;;;;21.27;12.95;;;;;;;;;;5052683;28;20044;-75
2022/04/16 07:52:33;;;;;;;21.42;13.18;;;;;;;;;;5052558;28;20036;-75
2022/04/16 07:54:59;;;;;;;24.33;14.30;;;;;;;;;;5052550;28;20116;-75
2022/04/16 07:57:25;;;;;;;21.95;12.85;;;;;;;;;;5052226;28;20037;-76
2022/04/16 07:59:53;;;;;;;23.35;12.88;;;;;;;;;;5052273;28;20036;-75
2022/04/16 08:02:20;;;;;;;19.88;12.40;;;;;;;;;;5052442;28;20171;-76
2022/04/16 08:04:46;;;;;;;20.40;12.45;;;;;;;;;;5052407;28;20030;-75
2022/04/16 08:07:12;;;;;;;21.70;12.35;;;;;;;;;;5052251;28;20025;-75
2022/04/16 08:09:38;;;;;;;18.25;11.82;;;;;;;;;;5052275;28;20033;-75
2022/04/16 08:12:04;;;;;;;20.60;11.40;;;;;;;;;;5052059;28;20025;-75
2022/04/16 08:14:30;;;;;;;18.95;11.18;;;;;;;;;;5051907;28;20021;-75
2022/04/16 08:16:56;;;;;;;20.73;11.52;;;;;;;;;;5052234;28;20071;-75
2022/04/16 08:19:23;;;;;;;17.25;10.32;;;;;;;;;;5052171;28;20370;-74
2022/04/16 08:21:49;;;;;;;16.65;10.60;;;;;;;;;;5052250;28;20466;-74
2022/04/16 08:26:56;;;;;;;18.48;10.50;;;;;;;;;;5052368;28;20063;-74
2022/04/16 08:29:22;;;;;;;15.43;9.85;;;;;;;;;;5051476;28;20025;-74
2022/04/16 08:31:49;;;;;;;16.83;10.18;;;;;;;;;;5053076;28;20028;-74
2022/04/16 08:34:15;;;;;;;20.75;10.18;;;;;;;;;;5052783;28;20418;-74
2022/04/16 08:36:41;;;;;;;18.33;9.52;;;;;;;;;;5052752;28;20405;-74
2022/04/16 08:39:07;;;;;;;15.63;9.55;;;;;;;;;;5052433;28;20064;-74
2022/04/16 08:41:33;;;;;;;15.75;9.50;;;;;;;;;;5047313;28;20109;-74
2022/04/16 08:44:00;;;;;;;15.10;8.80;;;;;;;;;;5032865;28;20475;-74
2022/04/16 08:46:28;;;;;;;14.18;8.80;;;;;;;;;;5032605;28;20440;-74
2022/04/16 08:48:55;;;;;;;14.48;8.90;;;;;;;;;;5032048;28;20029;-74
2022/04/16 08:51:21;;;;;;;16.00;9.77;;;;;;;;;;5032042;28;20032;-73
2022/04/16 08:53:47;;;;;;;15.07;9.50;;;;;;;;;;5031955;28;20138;-74
2022/04/16 08:56:13;;;;;;;15.52;8.55;;;;;;;;;;5031350;28;20463;-74
2022/04/16 08:58:39;;;;;;;15.23;8.40;;;;;;;;;;5031941;28;20059;-73
2022/04/16 09:01:05;;;;;;;12.70;8.15;;;;;;;;;;5031804;28;20025;-74
2022/04/16 09:03:32;;;;;;;14.95;8.18;;;;;;;;;;5047121;28;20514;-74
2022/04/16 09:05:59;;;;;;;12.18;7.90;;;;;;;;;;5031801;28;20075;-74
2022/04/16 09:08:31;;;;;;;11.63;7.15;;;;;;;;;;5032004;28;20031;-74
2022/04/16 09:11:11;;;;;;;12.38;7.57;;;;;;;;;;5031876;28;20034;-73
2022/04/16 09:13:41;;;;;;;12.95;7.20;;;;;;;;;;5035367;28;20028;-74
2022/04/16 09:16:07;;;;;;;13.35;6.45;;;;;;;;;;5051608;28;20141;-74
2022/04/16 09:18:46;;;;;;;10.93;6.45;;;;;;;;;;5051690;28;20359;-74
2022/04/16 09:21:15;;;;;;;8.90;6.00;;;;;;;;;;5052145;28;20060;-74
2022/04/16 09:23:48;;;;;;;10.38;6.10;;;;;;;;;;5051999;28;20066;-74
2022/04/16 09:26:26;;;;;;;8.63;5.43;;;;;;;;;;5051617;28;20375;-73
2022/04/16 09:28:52;;;;;;;9.15;5.47;;;;;;;;;;5051555;28;20032;-74
2022/04/16 09:31:18;;;;;;;9.38;5.55;;;;;;;;;;5051338;28;20048;-74
2022/04/16 09:33:45;;;;;;;9.02;5.30;;;;;;;;;;5051535;28;20032;-74
2022/04/16 09:36:11;;;;;;;9.40;5.22;;;;;;;;;;5051384;28;20160;-74
2022/04/16 09:38:38;;;;;;;8.07;5.22;;;;;;;;;;5054435;28;20040;-74
2022/04/16 09:41:08;;;;;;;8.52;4.97;;;;;;;;;;5055199;28;20036;-74
2022/04/16 09:43:37;;;;;;;20.83;5.75;;;;;;;;;;5055545;28;20021;-74
2022/04/16 09:46:11;;;;;;;9.38;5.15;;;;;;;;;;5055056;28;20386;-73
2022/04/16 09:48:37;;;;;;;8.20;5.88;;;;;;;;;;5055374;28;20024;-74
2022/04/16 09:51:05;;;;;;;8.00;5.78;;;;;;;;;;5055158;28;20040;-74
2022/04/16 09:53:31;;;;;;;8.63;5.50;;;;;;;;;;5055021;28;20441;-74
2022/04/16 09:55:59;;;;;;;9.07;5.60;;;;;;;;;;5054742;28;20057;-74
2022/04/16 09:58:45;;;;;;;8.02;4.53;;;;;;;;;;5055018;28;20063;-74
2022/04/16 10:01:12;;;;;;;7.30;4.72;;;;;;;;;;5054797;28;20425;-74
2022/04/16 10:03:40;;;;;;;7.07;4.28;;;;;;;;;;5054793;28;20013;-74
2022/04/16 10:06:07;;;;;;;6.25;4.20;;;;;;;;;;5054719;28;20036;-74
2022/04/16 10:08:35;;;;;;;7.18;4.88;;;;;;;;;;5055096;28;20021;-74
2022/04/16 10:11:03;;;;;;;7.30;3.95;;;;;;;;;;5053341;28;20779;-74
2022/04/16 10:13:32;;;;;;;5.88;4.25;;;;;;;;;;5054819;28;20482;-74
2022/04/16 10:16:01;;;;;;;7.55;4.30;;;;;;;;;;5053434;28;20040;-74
2022/04/16 10:18:27;;;;;;;6.90;4.15;;;;;;;;;;5054802;28;20395;-73
2022/04/16 10:20:57;;;;;;;7.38;3.95;;;;;;;;;;5054467;28;20032;-74
2022/04/16 10:23:38;;;;;;;6.70;3.75;;;;;;;;;;5054417;28;20128;-74
2022/04/16 10:26:14;;;;;;;7.40;4.68;;;;;;;;;;5054593;28;20033;-74
2022/04/16 10:28:44;;;;;;;8.35;3.90;;;;;;;;;;5054311;28;20438;-74
2022/04/16 10:31:30;;;;;;;9.02;4.22;;;;;;;;;;5054498;28;20021;-74
2022/04/16 10:33:59;;;;;;;5.50;4.20;;;;;;;;;;5054254;28;20045;-74
2022/04/16 10:36:32;;;;;;;6.70;4.88;;;;;;;;;;5054281;28;20036;-74
2022/04/16 10:38:59;;;;;;;6.82;4.55;;;;;;;;;;5054362;28;20025;-74
2022/04/16 10:41:26;;;;;;;6.07;4.22;;;;;;;;;;5050003;28;20023;-74
2022/04/16 10:43:59;;;;;;;7.80;4.28;;;;;;;;;;5034195;28;20487;-74
2022/04/16 10:46:25;;;;;;;5.90;3.67;;;;;;;;;;5034195;28;20017;-74
2022/04/16 10:48:51;;;;;;;10.02;3.85;;;;;;;;;;5033662;28;20037;-74
2022/04/16 10:51:21;;;;;;;7.55;3.65;;;;;;;;;;5033976;28;20029;-74
2022/04/16 10:53:47;;;;;;;6.22;3.70;;;;;;;;;;5033726;28;20022;-74
2022/04/16 10:56:20;;;;;;;6.85;4.20;;;;;;;;;;5033539;28;20073;-74
2022/04/16 10:58:47;;;;;;;8.55;4.95;;;;;;;;;;5033987;28;20053;-74
2022/04/16 11:01:23;;;;;;;7.47;4.57;;;;;;;;;;5034084;28;20017;-74
2022/04/16 11:03:49;;;;;;;6.47;3.88;;;;;;;;;;5033894;28;20014;-74
2022/04/16 11:06:17;;;;;;;6.07;4.00;;;;;;;;;;5034006;28;20078;-74
2022/04/16 11:08:45;;;;;;;7.63;3.75;;;;;;;;;;5034003;28;20025;-74
2022/04/16 11:11:12;;;;;;;14.13;4.47;;;;;;;;;;5033610;28;20547;-74
2022/04/16 11:13:39;;;;;;;12.13;4.75;;;;;;;;;;5049025;28;20029;-74
2022/04/16 11:16:06;;;;;;;7.35;4.30;;;;;;;;;;5033387;28;20175;-74
2022/04/16 11:18:45;;;;;;;6.95;3.92;;;;;;;;;;5033514;28;20017;-74
2022/04/16 11:21:20;;;;;;;6.30;3.97;;;;;;;;;;5049643;28;20048;-74
2022/04/16 11:23:51;;;;;;;5.47;3.75;;;;;;;;;;5053423;28;20096;-74
2022/04/16 11:34:42;;;;;;;6.50;3.80;;;;;;;;;;5053597;28;20083;-74
2022/04/16 11:37:08;;;;;;;4.97;3.60;;;;;;;;;;5053275;28;20036;-74
2022/04/16 11:39:35;;;;;;;6.70;3.35;;;;;;;;;;5053223;28;20364;-74
2022/04/16 11:42:10;;;;;;;9.15;3.50;;;;;;;;;;5053259;28;20028;-74
2022/04/16 11:44:41;;;;;;;5.05;3.08;;;;;;;;;;5053151;28;20021;-74
2022/04/16 11:47:11;;;;;;;4.95;3.40;;;;;;;;;;5051676;28;20027;-74
2022/04/16 11:49:37;;;;;;;4.65;2.75;;;;;;;;;;5053053;28;20467;-74
2022/04/16 11:52:05;;;;;;;4.90;3.10;;;;;;;;;;5051590;28;20036;-74
2022/04/16 11:54:31;;;;;;;4.35;2.80;;;;;;;;;;5053209;28;20348;-74
2022/04/16 11:56:58;;;;;;;4.22;2.60;;;;;;;;;;5052267;28;20410;-76
2022/04/16 11:59:24;;;;;;;4.57;2.80;;;;;;;;;;5052151;28;20017;-75
2022/04/16 12:02:20;;;;;;;4.32;2.85;;;;;;;;;;5052437;28;20382;-75
2022/04/16 12:04:46;;;;;;;4.70;2.55;;;;;;;;;;5030091;28;20478;-75
2022/04/16 12:07:19;;;;;;;6.03;2.70;;;;;;;;;;5030232;28;20030;-75
2022/04/16 12:09:48;;;;;;;6.72;2.45;;;;;;;;;;5030045;28;20395;-75
2022/04/16 12:12:18;;;;;;;3.72;2.35;;;;;;;;;;5029927;28;20100;-75
2022/04/16 12:14:50;;;;;;;3.67;2.35;;;;;;;;;;5029651;28;20044;-75
2022/04/16 12:17:24;;;;;;;3.95;2.08;;;;;;;;;;5029956;28;20029;-76
2022/04/16 12:20:02;;;;;;;5.38;2.22;;;;;;;;;;5029855;28;20021;-75
2022/04/16 12:22:28;;;;;;;3.00;1.90;;;;;;;;;;5029910;28;20033;-75
2022/04/16 12:24:54;;;;;;;5.15;2.10;;;;;;;;;;5013029;28;20022;-76
2022/04/16 12:27:29;;;;;;;6.25;2.10;;;;;;;;;;5029763;28;20030;-75
2022/04/16 12:29:56;;;;;;;4.20;2.08;;;;;;;;;;5029800;28;20119;-75
2022/04/16 12:32:26;;;;;;;2.17;1.48;;;;;;;;;;5013179;28;20021;-75
2022/04/16 12:34:52;;;;;;;3.10;1.70;;;;;;;;;;5029521;28;20033;-75
2022/04/16 12:37:18;;;;;;;5.97;2.13;;;;;;;;;;5029660;28;20049;-75
2022/04/16 12:39:44;;;;;;;7.05;1.73;;;;;;;;;;5029787;28;20343;-75
2022/04/16 12:42:10;;;;;;;4.30;1.60;;;;;;;;;;5041968;28;20051;-75
2022/04/16 12:44:36;;;;;;;4.50;1.67;;;;;;;;;;5051997;28;20035;-75
2022/04/16 12:47:02;;;;;;;2.88;1.42;;;;;;;;;;5050299;28;20040;-75
2022/04/16 12:49:28;;;;;;;7.63;1.80;;;;;;;;;;5051654;28;20475;-75
2022/04/16 12:51:55;;;;;;;2.55;1.58;;;;;;;;;;5051644;28;20031;-75
2022/04/16 12:54:21;;;;;;;2.17;1.33;;;;;;;;;;5051805;28;20521;-75
2022/04/16 12:56:47;;;;;;;3.22;1.40;;;;;;;;;;5051225;28;20061;-75
2022/04/16 12:59:13;;;;;;;2.85;1.60;;;;;;;;;;5051635;28;20040;-75
2022/04/16 13:01:39;;;;;;;2.90;1.40;;;;;;;;;;5051717;28;20032;-75
2022/04/16 13:04:05;;;;;;;4.75;1.80;;;;;;;;;;5051719;28;20025;-75
2022/04/16 13:06:32;;;;;;;6.13;1.67;;;;;;;;;;5051565;28;20017;-75
2022/04/16 13:09:02;;;;;;;6.15;1.63;;;;;;;;;;5051625;28;20478;-75
2022/04/16 13:11:28;;;;;;;3.20;1.80;;;;;;;;;;5053208;28;20029;-75
2022/04/16 13:13:54;;;;;;;2.70;1.70;;;;;;;;;;5055609;28;20040;-75
2022/04/16 13:16:20;;;;;;;2.90;1.83;;;;;;;;;;5055687;28;20116;-75
2022/04/16 13:18:47;;;;;;;3.63;1.95;;;;;;;;;;5054420;28;20328;-75
2022/04/16 13:21:15;;;;;;;2.83;1.67;;;;;;;;;;5055452;28;20104;-75
2022/04/16 13:23:41;;;;;;;2.55;1.35;;;;;;;;;;5055558;28;20013;-75
2022/04/16 13:26:07;;;;;;;2.50;1.50;;;;;;;;;;5055324;28;20064;-75
2022/04/16 13:28:33;;;;;;;3.80;1.75;;;;;;;;;;5055539;28;20533;-76
2022/04/16 13:30:59;;;;;;;3.00;1.50;;;;;;;;;;5055141;28;20028;-75
2022/04/16 13:33:25;;;;;;;5.93;2.53;;;;;;;;;;5055405;28;20036;-75
2022/04/16 13:35:51;;;;;;;2.95;1.88;;;;;;;;;;5055075;28;20048;-75
2022/04/16 13:38:17;;;;;;;6.68;1.80;;;;;;;;;;5055216;28;20025;-75
2022/04/16 13:43:29;;;;;;;3.67;2.35;;;;;;;;;;5035115;28;20452;-75
2022/04/16 13:45:55;;;;;;;3.78;1.85;;;;;;;;;;5035140;28;20052;-75
2022/04/16 13:48:22;;;;;;;2.80;1.80;;;;;;;;;;5035146;28;20022;-75
2022/04/16 13:50:48;;;;;;;5.97;2.03;;;;;;;;;;5034965;28;20068;-75
2022/04/16 13:53:14;;;;;;;3.05;1.60;;;;;;;;;;5034986;28;20402;-76
2022/04/16 13:55:40;;;;;;;10.63;2.28;;;;;;;;;;5034792;28;20091;-76
2022/04/16 13:58:07;;;;;;;2.30;1.48;;;;;;;;;;5034838;28;20063;-75
2022/04/16 14:00:33;;;;;;;3.35;2.08;;;;;;;;;;5034939;28;20033;-76
2022/04/16 14:02:59;;;;;;;6.95;1.55;;;;;;;;;;5034987;28;20071;-75
2022/04/16 14:05:43;;;;;;;3.05;1.60;;;;;;;;;;5034648;28;20112;-76
2022/04/16 14:08:09;;;;;;;2.83;1.38;;;;;;;;;;5034620;28;20104;-76
2022/04/16 14:10:35;;;;;;;2.67;1.30;;;;;;;;;;5034457;28;20053;-76
2022/04/16 14:13:01;;;;;;;3.45;1.30;;;;;;;;;;5034482;28;20029;-76
2022/04/16 14:15:28;;;;;;;3.00;1.50;;;;;;;;;;5053218;28;20533;-76
2022/04/16 14:17:54;;;;;;;3.60;1.65;;;;;;;;;;5053309;28;20053;-76
2022/04/16 14:20:20;;;;;;;5.10;1.88;;;;;;;;;;5054455;28;20097;-76
2022/04/16 14:22:46;;;;;;;2.30;1.10;;;;;;;;;;5052333;28;20538;-76
2022/04/16 14:25:14;;;;;;;3.55;1.38;;;;;;;;;;5054297;28;20025;-74
2022/04/16 14:27:40;;;;;;;3.58;2.00;;;;;;;;;;5054256;28;20033;-74
2022/04/16 14:30:07;;;;;;;3.83;1.85;;;;;;;;;;5054323;28;20029;-74
2022/04/16 14:32:33;;;;;;;4.88;1.70;;;;;;;;;;5034475;28;20077;-74
2022/04/16 14:34:59;;;;;;;3.53;1.52;;;;;;;;;;5049276;28;20029;-74
2022/04/16 14:37:26;;;;;;;2.33;1.65;;;;;;;;;;5049369;28;20037;-74
2022/04/16 14:39:52;;;;;;;7.18;1.80;;;;;;;;;;5034258;28;20049;-74
2022/04/16 14:42:18;;;;;;;3.47;1.85;;;;;;;;;;5052339;28;20056;-75
2022/04/16 14:44:51;;;;;;;5.05;2.15;;;;;;;;;;5053915;28;20455;-76
2022/04/16 14:47:17;;;;;;;4.80;1.60;;;;;;;;;;5054048;28;20072;-75
2022/04/16 14:49:43;;;;;;;3.58;1.90;;;;;;;;;;5053731;28;20048;-75
2022/04/16 14:52:11;;;;;;;8.85;1.63;;;;;;;;;;5053814;28;20064;-75
2022/04/16 14:54:37;;;;;;;5.93;1.98;;;;;;;;;;5053918;28;20033;-75
2022/04/16 14:57:03;;;;;;;3.78;1.63;;;;;;;;;;5053555;28;20056;-75